sensor_id;sensor_type;location;lat;lon;timestamp;P1;durP1;ratioP1;P2;durP2;ratioP2
21675;SDS011;10999;51.332;9.458;2023-07-08T00:01:17;5.07;;;1.98;;
21675;SDS011;10999;51.332;9.458;2023-07-08T00:03:45;3.97;;;1.60;;
21675;SDS011;10999;51.332;9.458;2023-07-08T00:06:14;6.30;;;2.08;;
21675;SDS011;10999;51.332;9.458;2023-07-08T00:08:44;5.53;;;2.10;;
21675;SDS011;10999;51.332;9.458;2023-07-08T00:11:11;4.70;;;1.73;;
21675;SDS011;10999;51.332;9.458;2023-07-08T00:13:39;4.55;;;1.85;;
21675;SDS011;10999;51.332;9.458;2023-07-08T00:16:15;4.57;;;1.77;;
21675;SDS011;10999;51.332;9.458;2023-07-08T00:18:45;5.60;;;2.03;;
21675;SDS011;10999;51.332;9.458;2023-07-08T00:21:12;6.88;;;1.92;;
21675;SDS011;10999;51.332;9.458;2023-07-08T00:23:46;5.80;;;1.95;;
21675;SDS011;10999;51.332;9.458;2023-07-08T00:26:26;5.45;;;1.80;;
21675;SDS011;10999;51.332;9.458;2023-07-08T00:28:55;5.13;;;2.05;;
21675;SDS011;10999;51.332;9.458;2023-07-08T00:31:23;4.57;;;1.77;;
21675;SDS011;10999;51.332;9.458;2023-07-08T00:33:52;5.25;;;1.80;;
21675;SDS011;10999;51.332;9.458;2023-07-08T00:36:24;5.13;;;1.77;;
21675;SDS011;10999;51.332;9.458;2023-07-08T00:38:53;4.57;;;1.70;;
21675;SDS011;10999;51.332;9.458;2023-07-08T00:44:01;5.80;;;1.95;;
21675;SDS011;10999;51.332;9.458;2023-07-08T00:48:58;3.90;;;1.60;;
21675;SDS011;10999;51.332;9.458;2023-07-08T00:51:33;4.78;;;1.70;;
21675;SDS011;10999;51.332;9.458;2023-07-08T00:54:05;4.95;;;1.40;;
21675;SDS011;10999;51.332;9.458;2023-07-08T00:56:44;6.50;;;2.05;;
21675;SDS011;10999;51.332;9.458;2023-07-08T00:59:33;5.75;;;1.73;;
21675;SDS011;10999;51.332;9.458;2023-07-08T01:02:03;4.63;;;1.67;;
21675;SDS011;10999;51.332;9.458;2023-07-08T01:04:39;5.53;;;1.98;;
21675;SDS011;10999;51.332;9.458;2023-07-08T01:07:25;4.70;;;1.85;;
21675;SDS011;10999;51.332;9.458;2023-07-08T01:09:55;5.13;;;1.80;;
21675;SDS011;10999;51.332;9.458;2023-07-08T01:12:29;4.93;;;1.80;;
21675;SDS011;10999;51.332;9.458;2023-07-08T01:14:58;4.43;;;1.90;;
21675;SDS011;10999;51.332;9.458;2023-07-08T01:17:29;4.97;;;1.80;;
21675;SDS011;10999;51.332;9.458;2023-07-08T01:19:59;5.25;;;1.90;;
21675;SDS011;10999;51.332;9.458;2023-07-08T01:22:30;4.97;;;2.05;;
21675;SDS011;10999;51.332;9.458;2023-07-08T01:24:58;4.32;;;1.60;;
21675;SDS011;10999;51.332;9.458;2023-07-08T01:27:30;6.88;;;2.00;;
21675;SDS011;10999;51.332;9.458;2023-07-08T01:30:00;4.78;;;1.80;;
21675;SDS011;10999;51.332;9.458;2023-07-08T01:32:29;5.25;;;1.73;;
21675;SDS011;10999;51.332;9.458;2023-07-08T01:34:59;4.63;;;1.80;;
21675;SDS011;10999;51.332;9.458;2023-07-08T01:43:01;6.93;;;1.85;;
21675;SDS011;10999;51.332;9.458;2023-07-08T01:45:31;5.40;;;1.88;;
21675;SDS011;10999;51.332;9.458;2023-07-08T01:48:03;4.95;;;1.70;;
21675;SDS011;10999;51.332;9.458;2023-07-08T01:50:32;4.03;;;1.73;;
21675;SDS011;10999;51.332;9.458;2023-07-08T01:53:05;4.03;;;1.60;;
21675;SDS011;10999;51.332;9.458;2023-07-08T01:55:38;5.15;;;1.73;;
21675;SDS011;10999;51.332;9.458;2023-07-08T01:58:04;6.18;;;1.90;;
21675;SDS011;10999;51.332;9.458;2023-07-08T02:00:31;7.57;;;2.00;;
21675;SDS011;10999;51.332;9.458;2023-07-08T02:02:58;3.80;;;1.70;;
21675;SDS011;10999;51.332;9.458;2023-07-08T02:05:25;5.10;;;2.00;;
21675;SDS011;10999;51.332;9.458;2023-07-08T02:07:52;5.40;;;1.80;;
21675;SDS011;10999;51.332;9.458;2023-07-08T02:10:18;6.68;;;1.98;;
21675;SDS011;10999;51.332;9.458;2023-07-08T02:12:45;5.10;;;1.98;;
21675;SDS011;10999;51.332;9.458;2023-07-08T02:15:13;5.53;;;2.28;;
21675;SDS011;10999;51.332;9.458;2023-07-08T02:17:40;4.60;;;1.67;;
21675;SDS011;10999;51.332;9.458;2023-07-08T02:20:07;4.65;;;1.70;;
21675;SDS011;10999;51.332;9.458;2023-07-08T02:22:34;3.83;;;1.65;;
21675;SDS011;10999;51.332;9.458;2023-07-08T02:25:02;4.30;;;1.80;;
21675;SDS011;10999;51.332;9.458;2023-07-08T02:27:30;5.63;;;1.98;;
21675;SDS011;10999;51.332;9.458;2023-07-08T02:29:56;5.65;;;2.17;;
21675;SDS011;10999;51.332;9.458;2023-07-08T02:32:23;5.72;;;1.85;;
21675;SDS011;10999;51.332;9.458;2023-07-08T02:34:50;5.43;;;1.73;;
21675;SDS011;10999;51.332;9.458;2023-07-08T02:37:18;6.75;;;1.88;;
21675;SDS011;10999;51.332;9.458;2023-07-08T02:39:45;6.30;;;1.90;;
21675;SDS011;10999;51.332;9.458;2023-07-08T02:42:12;5.78;;;1.83;;
21675;SDS011;10999;51.332;9.458;2023-07-08T02:44:38;5.53;;;1.90;;
21675;SDS011;10999;51.332;9.458;2023-07-08T02:47:05;6.10;;;2.25;;
21675;SDS011;10999;51.332;9.458;2023-07-08T02:49:32;5.72;;;1.88;;
21675;SDS011;10999;51.332;9.458;2023-07-08T02:51:59;5.60;;;2.00;;
21675;SDS011;10999;51.332;9.458;2023-07-08T02:54:25;5.50;;;2.13;;
21675;SDS011;10999;51.332;9.458;2023-07-08T02:56:52;6.82;;;1.90;;
21675;SDS011;10999;51.332;9.458;2023-07-08T02:59:19;5.13;;;2.00;;
21675;SDS011;10999;51.332;9.458;2023-07-08T03:01:46;5.85;;;2.00;;
21675;SDS011;10999;51.332;9.458;2023-07-08T03:04:13;4.80;;;1.92;;
21675;SDS011;10999;51.332;9.458;2023-07-08T03:06:41;5.55;;;2.13;;
21675;SDS011;10999;51.332;9.458;2023-07-08T03:09:09;3.95;;;1.80;;
21675;SDS011;10999;51.332;9.458;2023-07-08T03:11:38;6.43;;;2.05;;
21675;SDS011;10999;51.332;9.458;2023-07-08T03:14:06;5.55;;;1.95;;
21675;SDS011;10999;51.332;9.458;2023-07-08T03:16:33;7.20;;;2.33;;
21675;SDS011;10999;51.332;9.458;2023-07-08T03:19:00;6.13;;;1.80;;
21675;SDS011;10999;51.332;9.458;2023-07-08T03:21:27;6.32;;;2.20;;
21675;SDS011;10999;51.332;9.458;2023-07-08T03:23:54;6.50;;;2.55;;
21675;SDS011;10999;51.332;9.458;2023-07-08T03:26:22;4.85;;;1.77;;
21675;SDS011;10999;51.332;9.458;2023-07-08T03:28:50;5.70;;;2.03;;
21675;SDS011;10999;51.332;9.458;2023-07-08T03:31:17;5.18;;;2.03;;
21675;SDS011;10999;51.332;9.458;2023-07-08T03:33:44;5.63;;;2.00;;
21675;SDS011;10999;51.332;9.458;2023-07-08T03:36:13;3.75;;;1.67;;
21675;SDS011;10999;51.332;9.458;2023-07-08T03:38:52;6.60;;;2.38;;
21675;SDS011;10999;51.332;9.458;2023-07-08T03:41:19;5.20;;;2.72;;
21675;SDS011;10999;51.332;9.458;2023-07-08T03:43:46;5.28;;;1.98;;
21675;SDS011;10999;51.332;9.458;2023-07-08T03:46:14;4.90;;;1.80;;
21675;SDS011;10999;51.332;9.458;2023-07-08T03:48:41;5.53;;;2.10;;
21675;SDS011;10999;51.332;9.458;2023-07-08T03:51:15;4.82;;;1.80;;
21675;SDS011;10999;51.332;9.458;2023-07-08T03:53:47;5.63;;;1.77;;
21675;SDS011;10999;51.332;9.458;2023-07-08T03:56:14;5.05;;;1.90;;
21675;SDS011;10999;51.332;9.458;2023-07-08T03:58:41;5.75;;;2.17;;
21675;SDS011;10999;51.332;9.458;2023-07-08T04:01:10;6.07;;;1.80;;
21675;SDS011;10999;51.332;9.458;2023-07-08T04:03:42;5.35;;;2.10;;
21675;SDS011;10999;51.332;9.458;2023-07-08T04:06:10;5.10;;;2.17;;
21675;SDS011;10999;51.332;9.458;2023-07-08T04:08:36;5.13;;;2.00;;
21675;SDS011;10999;51.332;9.458;2023-07-08T04:11:06;5.90;;;2.28;;
21675;SDS011;10999;51.332;9.458;2023-07-08T04:13:34;5.50;;;2.25;;
21675;SDS011;10999;51.332;9.458;2023-07-08T04:16:02;5.97;;;1.88;;
21675;SDS011;10999;51.332;9.458;2023-07-08T04:18:30;6.75;;;2.22;;
21675;SDS011;10999;51.332;9.458;2023-07-08T04:20:58;5.70;;;1.88;;
21675;SDS011;10999;51.332;9.458;2023-07-08T04:23:28;5.22;;;1.92;;
21675;SDS011;10999;51.332;9.458;2023-07-08T04:25:55;5.60;;;1.80;;
21675;SDS011;10999;51.332;9.458;2023-07-08T04:28:23;5.60;;;1.63;;
21675;SDS011;10999;51.332;9.458;2023-07-08T04:30:50;6.25;;;2.00;;
21675;SDS011;10999;51.332;9.458;2023-07-08T04:33:17;5.90;;;1.75;;
21675;SDS011;10999;51.332;9.458;2023-07-08T04:35:44;6.07;;;2.53;;
21675;SDS011;10999;51.332;9.458;2023-07-08T04:38:16;3.28;;;1.70;;
21675;SDS011;10999;51.332;9.458;2023-07-08T04:40:45;5.07;;;1.92;;
21675;SDS011;10999;51.332;9.458;2023-07-08T04:43:12;6.15;;;1.80;;
21675;SDS011;10999;51.332;9.458;2023-07-08T04:45:39;5.00;;;1.90;;
21675;SDS011;10999;51.332;9.458;2023-07-08T04:48:07;4.70;;;1.77;;
21675;SDS011;10999;51.332;9.458;2023-07-08T04:50:41;4.57;;;1.75;;
21675;SDS011;10999;51.332;9.458;2023-07-08T04:53:08;5.40;;;2.03;;
21675;SDS011;10999;51.332;9.458;2023-07-08T04:55:36;3.22;;;1.60;;
21675;SDS011;10999;51.332;9.458;2023-07-08T04:58:06;4.80;;;2.20;;
21675;SDS011;10999;51.332;9.458;2023-07-08T05:00:32;4.97;;;1.88;;
21675;SDS011;10999;51.332;9.458;2023-07-08T05:02:59;7.38;;;2.35;;
21675;SDS011;10999;51.332;9.458;2023-07-08T05:05:26;4.45;;;1.80;;
21675;SDS011;10999;51.332;9.458;2023-07-08T05:07:53;4.78;;;1.85;;
21675;SDS011;10999;51.332;9.458;2023-07-08T05:10:20;3.83;;;1.70;;
21675;SDS011;10999;51.332;9.458;2023-07-08T05:12:47;4.63;;;1.52;;
21675;SDS011;10999;51.332;9.458;2023-07-08T05:15:14;5.50;;;1.90;;
21675;SDS011;10999;51.332;9.458;2023-07-08T05:17:41;4.60;;;1.88;;
21675;SDS011;10999;51.332;9.458;2023-07-08T05:20:10;4.97;;;1.80;;
21675;SDS011;10999;51.332;9.458;2023-07-08T05:22:39;4.32;;;1.70;;
21675;SDS011;10999;51.332;9.458;2023-07-08T05:25:06;3.60;;;1.55;;
21675;SDS011;10999;51.332;9.458;2023-07-08T05:27:33;5.57;;;1.90;;
21675;SDS011;10999;51.332;9.458;2023-07-08T05:30:01;4.72;;;2.20;;
21675;SDS011;10999;51.332;9.458;2023-07-08T05:32:29;5.60;;;1.80;;
21675;SDS011;10999;51.332;9.458;2023-07-08T05:34:56;4.93;;;2.00;;
21675;SDS011;10999;51.332;9.458;2023-07-08T05:37:23;5.65;;;2.25;;
21675;SDS011;10999;51.332;9.458;2023-07-08T05:39:51;4.30;;;1.80;;
21675;SDS011;10999;51.332;9.458;2023-07-08T05:42:22;6.70;;;2.30;;
21675;SDS011;10999;51.332;9.458;2023-07-08T05:44:49;4.68;;;1.80;;
21675;SDS011;10999;51.332;9.458;2023-07-08T05:47:18;6.10;;;2.30;;
21675;SDS011;10999;51.332;9.458;2023-07-08T05:49:45;5.70;;;1.70;;
21675;SDS011;10999;51.332;9.458;2023-07-08T05:52:11;5.03;;;2.03;;
21675;SDS011;10999;51.332;9.458;2023-07-08T05:54:38;6.28;;;2.13;;
21675;SDS011;10999;51.332;9.458;2023-07-08T05:57:06;6.22;;;2.10;;
21675;SDS011;10999;51.332;9.458;2023-07-08T05:59:35;4.88;;;1.70;;
21675;SDS011;10999;51.332;9.458;2023-07-08T06:02:03;6.40;;;2.20;;
21675;SDS011;10999;51.332;9.458;2023-07-08T06:04:29;5.30;;;1.90;;
21675;SDS011;10999;51.332;9.458;2023-07-08T06:06:57;3.80;;;1.73;;
21675;SDS011;10999;51.332;9.458;2023-07-08T06:09:24;5.32;;;2.10;;
21675;SDS011;10999;51.332;9.458;2023-07-08T06:11:50;6.70;;;2.28;;
21675;SDS011;10999;51.332;9.458;2023-07-08T06:14:17;4.65;;;1.85;;
21675;SDS011;10999;51.332;9.458;2023-07-08T06:16:44;5.43;;;2.05;;
21675;SDS011;10999;51.332;9.458;2023-07-08T06:19:12;6.13;;;2.00;;
21675;SDS011;10999;51.332;9.458;2023-07-08T06:21:41;4.75;;;2.10;;
21675;SDS011;10999;51.332;9.458;2023-07-08T06:24:08;5.13;;;1.88;;
21675;SDS011;10999;51.332;9.458;2023-07-08T06:26:35;3.55;;;1.85;;
21675;SDS011;10999;51.332;9.458;2023-07-08T06:29:02;5.15;;;2.10;;
21675;SDS011;10999;51.332;9.458;2023-07-08T06:31:29;5.25;;;2.17;;
21675;SDS011;10999;51.332;9.458;2023-07-08T06:33:56;5.90;;;2.15;;
21675;SDS011;10999;51.332;9.458;2023-07-08T06:36:23;5.70;;;2.03;;
21675;SDS011;10999;51.332;9.458;2023-07-08T06:38:50;4.70;;;1.80;;
21675;SDS011;10999;51.332;9.458;2023-07-08T06:41:17;5.18;;;1.73;;
21675;SDS011;10999;51.332;9.458;2023-07-08T06:43:44;5.40;;;2.05;;
21675;SDS011;10999;51.332;9.458;2023-07-08T06:46:11;4.22;;;1.90;;
21675;SDS011;10999;51.332;9.458;2023-07-08T06:48:38;4.78;;;1.98;;
21675;SDS011;10999;51.332;9.458;2023-07-08T06:51:04;4.40;;;1.80;;
21675;SDS011;10999;51.332;9.458;2023-07-08T06:53:32;5.22;;;2.00;;
21675;SDS011;10999;51.332;9.458;2023-07-08T06:55:59;7.25;;;2.00;;
21675;SDS011;10999;51.332;9.458;2023-07-08T06:58:26;6.95;;;2.30;;
21675;SDS011;10999;51.332;9.458;2023-07-08T07:00:53;6.35;;;2.13;;
21675;SDS011;10999;51.332;9.458;2023-07-08T07:03:20;7.40;;;2.33;;
21675;SDS011;10999;51.332;9.458;2023-07-08T07:05:47;5.43;;;2.10;;
21675;SDS011;10999;51.332;9.458;2023-07-08T07:08:14;4.85;;;1.83;;
21675;SDS011;10999;51.332;9.458;2023-07-08T07:10:40;5.45;;;2.10;;
21675;SDS011;10999;51.332;9.458;2023-07-08T07:13:08;6.20;;;2.30;;
21675;SDS011;10999;51.332;9.458;2023-07-08T07:15:36;5.07;;;1.88;;
21675;SDS011;10999;51.332;9.458;2023-07-08T07:18:02;5.65;;;1.92;;
21675;SDS011;10999;51.332;9.458;2023-07-08T07:20:30;6.07;;;2.00;;
21675;SDS011;10999;51.332;9.458;2023-07-08T07:22:58;6.43;;;2.47;;
21675;SDS011;10999;51.332;9.458;2023-07-08T07:25:25;8.27;;;2.35;;
21675;SDS011;10999;51.332;9.458;2023-07-08T07:27:52;6.75;;;2.22;;
21675;SDS011;10999;51.332;9.458;2023-07-08T07:30:19;5.45;;;2.30;;
21675;SDS011;10999;51.332;9.458;2023-07-08T07:32:46;7.40;;;2.40;;
21675;SDS011;10999;51.332;9.458;2023-07-08T07:35:13;4.65;;;2.15;;
21675;SDS011;10999;51.332;9.458;2023-07-08T07:37:41;5.85;;;2.05;;
21675;SDS011;10999;51.332;9.458;2023-07-08T07:40:09;5.28;;;2.40;;
21675;SDS011;10999;51.332;9.458;2023-07-08T07:42:39;5.55;;;2.05;;
21675;SDS011;10999;51.332;9.458;2023-07-08T07:45:07;6.63;;;2.60;;
21675;SDS011;10999;51.332;9.458;2023-07-08T07:47:35;6.25;;;2.30;;
21675;SDS011;10999;51.332;9.458;2023-07-08T07:50:06;8.90;;;4.00;;
21675;SDS011;10999;51.332;9.458;2023-07-08T07:52:34;6.15;;;2.47;;
21675;SDS011;10999;51.332;9.458;2023-07-08T07:55:01;6.93;;;2.45;;
21675;SDS011;10999;51.332;9.458;2023-07-08T07:57:29;5.22;;;2.38;;
21675;SDS011;10999;51.332;9.458;2023-07-08T07:59:56;5.28;;;2.35;;
21675;SDS011;10999;51.332;9.458;2023-07-08T08:02:22;5.43;;;2.65;;
21675;SDS011;10999;51.332;9.458;2023-07-08T08:04:49;6.65;;;2.67;;
21675;SDS011;10999;51.332;9.458;2023-07-08T08:07:16;5.60;;;2.42;;
21675;SDS011;10999;51.332;9.458;2023-07-08T08:09:43;6.80;;;2.33;;
21675;SDS011;10999;51.332;9.458;2023-07-08T08:12:10;5.65;;;2.70;;
21675;SDS011;10999;51.332;9.458;2023-07-08T08:14:38;5.88;;;2.97;;
21675;SDS011;10999;51.332;9.458;2023-07-08T08:17:05;6.00;;;2.75;;
21675;SDS011;10999;51.332;9.458;2023-07-08T08:19:32;5.65;;;2.55;;
21675;SDS011;10999;51.332;9.458;2023-07-08T08:21:59;7.30;;;2.63;;
21675;SDS011;10999;51.332;9.458;2023-07-08T08:24:26;6.10;;;2.50;;
21675;SDS011;10999;51.332;9.458;2023-07-08T08:26:53;6.43;;;2.58;;
21675;SDS011;10999;51.332;9.458;2023-07-08T08:29:20;5.95;;;2.60;;
21675;SDS011;10999;51.332;9.458;2023-07-08T08:31:47;5.70;;;2.70;;
21675;SDS011;10999;51.332;9.458;2023-07-08T08:34:14;6.05;;;2.78;;
21675;SDS011;10999;51.332;9.458;2023-07-08T08:36:41;7.13;;;2.80;;
21675;SDS011;10999;51.332;9.458;2023-07-08T08:39:08;6.68;;;2.60;;
21675;SDS011;10999;51.332;9.458;2023-07-08T08:41:37;5.15;;;2.25;;
21675;SDS011;10999;51.332;9.458;2023-07-08T08:44:06;7.05;;;2.92;;
21675;SDS011;10999;51.332;9.458;2023-07-08T08:51:53;6.82;;;2.80;;
21675;SDS011;10999;51.332;9.458;2023-07-08T08:54:21;8.13;;;3.17;;
21675;SDS011;10999;51.332;9.458;2023-07-08T08:56:52;5.95;;;2.83;;
21675;SDS011;10999;51.332;9.458;2023-07-08T09:04:58;7.60;;;3.13;;
21675;SDS011;10999;51.332;9.458;2023-07-08T09:07:36;6.05;;;2.47;;
21675;SDS011;10999;51.332;9.458;2023-07-08T09:13:32;6.68;;;2.85;;
21675;SDS011;10999;51.332;9.458;2023-07-08T09:16:06;5.97;;;2.67;;
21675;SDS011;10999;51.332;9.458;2023-07-08T09:18:49;6.85;;;2.70;;
21675;SDS011;10999;51.332;9.458;2023-07-08T09:21:24;6.43;;;2.72;;
21675;SDS011;10999;51.332;9.458;2023-07-08T09:24:00;7.68;;;2.80;;
21675;SDS011;10999;51.332;9.458;2023-07-08T09:26:33;5.65;;;2.65;;
21675;SDS011;10999;51.332;9.458;2023-07-08T09:29:00;7.75;;;3.13;;
21675;SDS011;10999;51.332;9.458;2023-07-08T09:31:28;8.30;;;3.15;;
21675;SDS011;10999;51.332;9.458;2023-07-08T09:34:06;6.70;;;2.88;;
21675;SDS011;10999;51.332;9.458;2023-07-08T09:36:41;8.25;;;3.15;;
21675;SDS011;10999;51.332;9.458;2023-07-08T09:39:11;6.00;;;2.90;;
21675;SDS011;10999;51.332;9.458;2023-07-08T09:41:40;7.93;;;3.30;;
21675;SDS011;10999;51.332;9.458;2023-07-08T09:44:21;6.50;;;2.95;;
21675;SDS011;10999;51.332;9.458;2023-07-08T09:46:53;8.60;;;3.00;;
21675;SDS011;10999;51.332;9.458;2023-07-08T09:51:57;6.70;;;2.60;;
21675;SDS011;10999;51.332;9.458;2023-07-08T09:54:25;6.68;;;2.83;;
21675;SDS011;10999;51.332;9.458;2023-07-08T09:56:54;8.38;;;3.03;;
21675;SDS011;10999;51.332;9.458;2023-07-08T09:59:26;6.30;;;2.78;;
21675;SDS011;10999;51.332;9.458;2023-07-08T10:02:09;7.28;;;3.13;;
21675;SDS011;10999;51.332;9.458;2023-07-08T10:04:58;6.07;;;2.97;;
21675;SDS011;10999;51.332;9.458;2023-07-08T10:07:28;7.47;;;2.78;;
21675;SDS011;10999;51.332;9.458;2023-07-08T10:09:58;6.10;;;2.60;;
21675;SDS011;10999;51.332;9.458;2023-07-08T10:12:27;7.30;;;3.08;;
21675;SDS011;10999;51.332;9.458;2023-07-08T10:14:57;10.30;;;3.03;;
21675;SDS011;10999;51.332;9.458;2023-07-08T10:17:29;9.50;;;3.33;;
21675;SDS011;10999;51.332;9.458;2023-07-08T10:19:56;9.00;;;2.88;;
21675;SDS011;10999;51.332;9.458;2023-07-08T10:22:42;13.30;;;4.40;;
21675;SDS011;10999;51.332;9.458;2023-07-08T10:28:03;8.52;;;3.35;;
21675;SDS011;10999;51.332;9.458;2023-07-08T10:30:46;5.93;;;2.65;;
21675;SDS011;10999;51.332;9.458;2023-07-08T10:52:51;5.65;;;2.67;;
21675;SDS011;10999;51.332;9.458;2023-07-08T11:00:34;7.97;;;3.25;;
21675;SDS011;10999;51.332;9.458;2023-07-08T11:03:15;7.95;;;2.97;;
21675;SDS011;10999;51.332;9.458;2023-07-08T11:05:59;5.97;;;2.70;;
21675;SDS011;10999;51.332;9.458;2023-07-08T11:08:56;6.65;;;3.10;;
21675;SDS011;10999;51.332;9.458;2023-07-08T11:11:33;6.15;;;2.55;;
21675;SDS011;10999;51.332;9.458;2023-07-08T11:19:34;6.43;;;2.80;;
21675;SDS011;10999;51.332;9.458;2023-07-08T11:22:07;6.72;;;3.22;;
21675;SDS011;10999;51.332;9.458;2023-07-08T11:24:40;7.82;;;3.40;;
21675;SDS011;10999;51.332;9.458;2023-07-08T11:27:33;7.57;;;2.90;;
21675;SDS011;10999;51.332;9.458;2023-07-08T11:32:37;6.38;;;2.90;;
21675;SDS011;10999;51.332;9.458;2023-07-08T11:35:07;7.55;;;3.58;;
21675;SDS011;10999;51.332;9.458;2023-07-08T11:38:06;7.65;;;3.30;;
21675;SDS011;10999;51.332;9.458;2023-07-08T11:41:00;10.00;;;3.50;;
21675;SDS011;10999;51.332;9.458;2023-07-08T11:43:34;6.63;;;3.00;;
21675;SDS011;10999;51.332;9.458;2023-07-08T11:46:11;6.97;;;3.28;;
21675;SDS011;10999;51.332;9.458;2023-07-08T11:48:48;7.57;;;3.28;;
21675;SDS011;10999;51.332;9.458;2023-07-08T11:51:19;7.03;;;3.00;;
21675;SDS011;10999;51.332;9.458;2023-07-08T11:53:58;7.22;;;3.35;;
21675;SDS011;10999;51.332;9.458;2023-07-08T11:59:25;8.05;;;3.95;;
21675;SDS011;10999;51.332;9.458;2023-07-08T12:02:03;7.75;;;3.22;;
21675;SDS011;10999;51.332;9.458;2023-07-08T12:04:58;7.47;;;3.38;;
21675;SDS011;10999;51.332;9.458;2023-07-08T12:07:38;8.07;;;3.42;;
21675;SDS011;10999;51.332;9.458;2023-07-08T12:12:45;8.43;;;3.63;;
21675;SDS011;10999;51.332;9.458;2023-07-08T12:15:23;6.97;;;3.05;;
21675;SDS011;10999;51.332;9.458;2023-07-08T12:17:59;7.03;;;3.17;;
21675;SDS011;10999;51.332;9.458;2023-07-08T12:20:36;8.25;;;3.50;;
21675;SDS011;10999;51.332;9.458;2023-07-08T12:23:12;8.50;;;3.55;;
21675;SDS011;10999;51.332;9.458;2023-07-08T12:25:45;6.85;;;3.10;;
21675;SDS011;10999;51.332;9.458;2023-07-08T12:28:12;7.47;;;3.25;;
21675;SDS011;10999;51.332;9.458;2023-07-08T12:30:41;8.48;;;3.80;;
21675;SDS011;10999;51.332;9.458;2023-07-08T12:33:11;9.27;;;3.35;;
21675;SDS011;10999;51.332;9.458;2023-07-08T12:35:41;8.38;;;3.70;;
21675;SDS011;10999;51.332;9.458;2023-07-08T12:38:12;9.82;;;4.30;;
21675;SDS011;10999;51.332;9.458;2023-07-08T12:41:01;8.30;;;4.10;;
21675;SDS011;10999;51.332;9.458;2023-07-08T12:43:31;7.78;;;3.38;;
21675;SDS011;10999;51.332;9.458;2023-07-08T12:45:59;7.63;;;3.35;;
21675;SDS011;10999;51.332;9.458;2023-07-08T12:48:30;7.60;;;3.85;;
21675;SDS011;10999;51.332;9.458;2023-07-08T12:50:59;8.48;;;3.22;;
21675;SDS011;10999;51.332;9.458;2023-07-08T12:53:26;7.18;;;3.45;;
21675;SDS011;10999;51.332;9.458;2023-07-08T12:55:54;8.52;;;3.80;;
21675;SDS011;10999;51.332;9.458;2023-07-08T13:00:57;7.60;;;3.42;;
21675;SDS011;10999;51.332;9.458;2023-07-08T13:03:27;7.05;;;3.25;;
21675;SDS011;10999;51.332;9.458;2023-07-08T13:06:07;6.60;;;3.30;;
21675;SDS011;10999;51.332;9.458;2023-07-08T13:08:37;9.65;;;3.47;;
21675;SDS011;10999;51.332;9.458;2023-07-08T13:11:05;7.13;;;3.33;;
21675;SDS011;10999;51.332;9.458;2023-07-08T13:13:34;8.48;;;3.40;;
21675;SDS011;10999;51.332;9.458;2023-07-08T13:16:03;7.93;;;3.70;;
21675;SDS011;10999;51.332;9.458;2023-07-08T13:18:32;7.50;;;3.50;;
21675;SDS011;10999;51.332;9.458;2023-07-08T13:21:05;7.32;;;3.47;;
21675;SDS011;10999;51.332;9.458;2023-07-08T13:23:34;7.55;;;3.80;;
21675;SDS011;10999;51.332;9.458;2023-07-08T13:26:11;8.43;;;3.50;;
21675;SDS011;10999;51.332;9.458;2023-07-08T13:28:47;8.57;;;3.60;;
21675;SDS011;10999;51.332;9.458;2023-07-08T13:31:17;9.70;;;3.40;;
21675;SDS011;10999;51.332;9.458;2023-07-08T13:33:53;10.15;;;5.20;;
21675;SDS011;10999;51.332;9.458;2023-07-08T13:36:31;7.05;;;3.60;;
21675;SDS011;10999;51.332;9.458;2023-07-08T13:39:07;7.75;;;3.65;;
21675;SDS011;10999;51.332;9.458;2023-07-08T13:41:35;7.93;;;3.90;;
21675;SDS011;10999;51.332;9.458;2023-07-08T13:44:06;7.65;;;3.67;;
21675;SDS011;10999;51.332;9.458;2023-07-08T13:49:14;8.18;;;3.90;;
21675;SDS011;10999;51.332;9.458;2023-07-08T13:51:48;7.28;;;3.55;;
21675;SDS011;10999;51.332;9.458;2023-07-08T13:54:22;7.63;;;3.70;;
21675;SDS011;10999;51.332;9.458;2023-07-08T13:56:52;7.22;;;3.63;;
21675;SDS011;10999;51.332;9.458;2023-07-08T13:59:23;8.20;;;3.50;;
21675;SDS011;10999;51.332;9.458;2023-07-08T14:04:30;7.82;;;3.35;;
21675;SDS011;10999;51.332;9.458;2023-07-08T14:06:59;7.57;;;3.58;;
21675;SDS011;10999;51.332;9.458;2023-07-08T14:09:26;7.53;;;3.35;;
21675;SDS011;10999;51.332;9.458;2023-07-08T14:11:53;7.88;;;3.67;;
21675;SDS011;10999;51.332;9.458;2023-07-08T14:14:20;8.63;;;3.97;;
21675;SDS011;10999;51.332;9.458;2023-07-08T14:16:48;7.60;;;3.63;;
21675;SDS011;10999;51.332;9.458;2023-07-08T14:19:19;7.60;;;4.00;;
21675;SDS011;10999;51.332;9.458;2023-07-08T14:21:54;8.10;;;3.83;;
21675;SDS011;10999;51.332;9.458;2023-07-08T14:24:23;6.85;;;3.38;;
21675;SDS011;10999;51.332;9.458;2023-07-08T14:26:51;8.35;;;3.90;;
21675;SDS011;10999;51.332;9.458;2023-07-08T14:29:19;6.68;;;3.22;;
21675;SDS011;10999;51.332;9.458;2023-07-08T14:31:46;9.15;;;3.83;;
21675;SDS011;10999;51.332;9.458;2023-07-08T14:34:24;7.22;;;3.08;;
21675;SDS011;10999;51.332;9.458;2023-07-08T14:36:52;7.95;;;3.35;;
21675;SDS011;10999;51.332;9.458;2023-07-08T14:39:20;7.55;;;3.42;;
21675;SDS011;10999;51.332;9.458;2023-07-08T14:41:48;7.50;;;4.00;;
21675;SDS011;10999;51.332;9.458;2023-07-08T14:46:47;7.20;;;3.40;;
21675;SDS011;10999;51.332;9.458;2023-07-08T14:49:20;7.80;;;3.63;;
21675;SDS011;10999;51.332;9.458;2023-07-08T14:51:48;8.60;;;3.88;;
21675;SDS011;10999;51.332;9.458;2023-07-08T14:54:18;7.00;;;3.55;;
21675;SDS011;10999;51.332;9.458;2023-07-08T14:56:45;8.07;;;3.75;;
21675;SDS011;10999;51.332;9.458;2023-07-08T14:59:18;7.10;;;3.30;;
21675;SDS011;10999;51.332;9.458;2023-07-08T15:01:47;6.90;;;3.42;;
21675;SDS011;10999;51.332;9.458;2023-07-08T15:04:16;8.45;;;3.80;;
21675;SDS011;10999;51.332;9.458;2023-07-08T15:06:44;7.97;;;3.50;;
21675;SDS011;10999;51.332;9.458;2023-07-08T15:09:12;7.53;;;3.38;;
21675;SDS011;10999;51.332;9.458;2023-07-08T15:11:40;6.93;;;3.25;;
21675;SDS011;10999;51.332;9.458;2023-07-08T15:14:21;7.53;;;3.60;;
21675;SDS011;10999;51.332;9.458;2023-07-08T15:16:50;8.38;;;3.60;;
21675;SDS011;10999;51.332;9.458;2023-07-08T15:19:18;7.85;;;3.47;;
21675;SDS011;10999;51.332;9.458;2023-07-08T15:21:46;7.85;;;3.85;;
21675;SDS011;10999;51.332;9.458;2023-07-08T15:24:13;8.68;;;3.40;;
21675;SDS011;10999;51.332;9.458;2023-07-08T15:26:41;7.65;;;3.63;;
21675;SDS011;10999;51.332;9.458;2023-07-08T15:29:14;7.45;;;3.50;;
21675;SDS011;10999;51.332;9.458;2023-07-08T15:31:46;8.10;;;3.67;;
21675;SDS011;10999;51.332;9.458;2023-07-08T15:34:14;10.13;;;3.80;;
21675;SDS011;10999;51.332;9.458;2023-07-08T15:36:45;9.52;;;4.20;;
21675;SDS011;10999;51.332;9.458;2023-07-08T15:39:12;7.70;;;3.50;;
21675;SDS011;10999;51.332;9.458;2023-07-08T15:41:40;7.95;;;3.67;;
21675;SDS011;10999;51.332;9.458;2023-07-08T15:44:11;7.70;;;3.42;;
21675;SDS011;10999;51.332;9.458;2023-07-08T15:46:40;7.00;;;3.28;;
21675;SDS011;10999;51.332;9.458;2023-07-08T15:49:14;8.15;;;3.50;;
21675;SDS011;10999;51.332;9.458;2023-07-08T15:51:44;6.70;;;3.20;;
21675;SDS011;10999;51.332;9.458;2023-07-08T15:54:14;7.97;;;3.35;;
21675;SDS011;10999;51.332;9.458;2023-07-08T15:56:43;7.88;;;3.55;;
21675;SDS011;10999;51.332;9.458;2023-07-08T15:59:13;9.38;;;4.00;;
21675;SDS011;10999;51.332;9.458;2023-07-08T16:01:44;9.98;;;3.70;;
21675;SDS011;10999;51.332;9.458;2023-07-08T16:04:26;7.57;;;3.50;;
21675;SDS011;10999;51.332;9.458;2023-07-08T16:06:58;7.90;;;3.45;;
21675;SDS011;10999;51.332;9.458;2023-07-08T16:09:25;7.40;;;3.30;;
21675;SDS011;10999;51.332;9.458;2023-07-08T16:11:52;7.85;;;3.60;;
21675;SDS011;10999;51.332;9.458;2023-07-08T16:14:18;7.65;;;3.50;;
21675;SDS011;10999;51.332;9.458;2023-07-08T16:16:46;7.80;;;3.50;;
21675;SDS011;10999;51.332;9.458;2023-07-08T16:19:13;7.43;;;3.53;;
21675;SDS011;10999;51.332;9.458;2023-07-08T16:21:40;8.55;;;3.40;;
21675;SDS011;10999;51.332;9.458;2023-07-08T16:24:07;7.70;;;3.20;;